Photometre #45[NE_1.6] Bure_OPE AOT

File : 20190927_45.hum

27/09/2019,06:25:28,TEMP=14.7,BA=5.32,STAT.A=8.0,ExtBa=12.54
27/09/2019,06:29:24,TEMP=15.6,BA=5.32,STAT.A=8.0,ExtBa=12.43
27/09/2019,06:34:00,TEMP=15.6,BA=5.24,STAT.A=8.0,ExtBa=12.39
27/09/2019,06:39:29,TEMP=15.3,BA=5.24,STAT.A=8.0,ExtBa=12.38
27/09/2019,06:46:07,TEMP=14.9,BA=5.24,STAT.A=8.0,ExtBa=12.39
27/09/2019,06:54:19,TEMP=14.6,BA=5.36,STAT.A=8.0,ExtBa=12.39
27/09/2019,07:04:44,TEMP=14.2,BA=5.36,STAT.B=8.0,ExtBa=12.42
27/09/2019,07:09:44,TEMP=14.6,BA=5.36,STAT.A=8.0,ExtBa=12.37
27/09/2019,07:15:21,TEMP=14.4,BA=5.24,STAT.A=8.0,ExtBa=12.37
27/09/2019,07:21:43,TEMP=14.3,BA=5.44,STAT.A=8.0,ExtBa=12.38
27/09/2019,07:28:59,TEMP=14.2,BA=5.44,STAT.A=8.0,ExtBa=12.39
27/09/2019,07:37:23,TEMP=14.1,BA=5.24,STAT.C=8.0,ExtBa=12.39
27/09/2019,07:47:15,TEMP=14.0,BA=5.44,STAT.A=8.0,ExtBa=12.40
27/09/2019,07:58:59,TEMP=13.9,BA=5.56,STAT.A=8.0,ExtBa=12.41
27/09/2019,08:13:18,TEMP=13.6,BA=5.48,STAT.A=8.0,ExtBa=12.42
27/09/2019,08:29:40,TEMP=13.3,BA=5.44,STAT.F,ExtBa=12.42
27/09/2019,08:44:38,TEMP=13.4,BA=5.56,STAT.D=8.0,ExtBa=12.42
27/09/2019,08:59:38,TEMP=13.6,BA=5.56,STAT.D=8.0,ExtBa=12.43
27/09/2019,09:14:38,TEMP=13.7,BA=5.60,STAT.D=8.0,ExtBa=12.42
27/09/2019,09:29:40,TEMP=13.7,BA=5.56,STAT.F,ExtBa=12.41
27/09/2019,09:44:39,TEMP=13.7,BA=5.60,STAT.D=8.0,ExtBa=12.42
27/09/2019,09:59:39,TEMP=14.0,BA=5.60,STAT.D=8.0,ExtBa=12.44
27/09/2019,10:14:38,TEMP=13.9,BA=5.60,STAT.D=8.0,ExtBa=12.45
27/09/2019,10:29:40,TEMP=14.1,BA=5.60,STAT.F,ExtBa=12.60
27/09/2019,10:44:39,TEMP=14.1,BA=5.60,STAT.D=8.0,ExtBa=12.56
27/09/2019,10:59:39,TEMP=13.7,BA=5.60,STAT.D=8.0,ExtBa=12.46
27/09/2019,11:14:39,TEMP=13.9,BA=5.60,STAT.D=8.0,ExtBa=12.54
27/09/2019,11:29:40,TEMP=14.5,BA=5.60,STAT.F,ExtBa=12.79
27/09/2019,11:44:39,TEMP=14.6,BA=5.60,STAT.D=8.0,ExtBa=12.71
27/09/2019,11:59:39,TEMP=14.9,BA=5.60,STAT.D=8.0,ExtBa=12.90
27/09/2019,12:14:39,TEMP=15.7,BA=5.60,STAT.D=8.0,ExtBa=12.98
27/09/2019,12:29:40,TEMP=16.8,BA=5.60,STAT.F,ExtBa=13.10
27/09/2019,12:44:39,TEMP=17.7,BA=5.60,STAT.D=8.0,ExtBa=13.49
27/09/2019,12:59:38,TEMP=18.1,BA=5.60,STAT.D=8.0,ExtBa=13.56
27/09/2019,13:14:39,TEMP=19.0,BA=5.60,STAT.D=8.0,ExtBa=13.63
27/09/2019,13:29:40,TEMP=19.6,BA=5.60,STAT.F,ExtBa=13.20
27/09/2019,13:44:38,TEMP=19.7,BA=5.60,STAT.D=8.5,ExtBa=13.49
27/09/2019,13:59:38,TEMP=20.1,BA=5.60,STAT.D=8.5,ExtBa=13.29
27/09/2019,14:14:38,TEMP=19.6,BA=5.60,STAT.D=8.5,ExtBa=13.15
27/09/2019,14:29:40,TEMP=19.8,BA=5.60,STAT.F,ExtBa=13.42
27/09/2019,14:46:02,TEMP=23.4,BA=5.48,STAT.A=7.0,ExtBa=12.85
27/09/2019,15:00:19,TEMP=19.8,BA=5.60,STAT.A=8.5,ExtBa=12.91
27/09/2019,15:12:03,TEMP=19.2,BA=5.60,STAT.A=8.5,ExtBa=12.86
27/09/2019,15:21:55,TEMP=19.0,BA=5.60,STAT.C=8.5,ExtBa=12.83
27/09/2019,15:37:32,TEMP=24.3,BA=5.44,STAT.A=6.5,ExtBa=12.53
27/09/2019,15:39:26,TEMP=24.2,BA=5.44,STAT.A=6.5,ExtBa=12.54
27/09/2019,15:43:57,TEMP=20.9,BA=5.44,STAT.A=8.0,ExtBa=12.63
27/09/2019,15:49:34,TEMP=19.8,BA=5.44,STAT.A=8.0,ExtBa=12.65
27/09/2019,15:54:34,TEMP=19.9,BA=5.44,STAT.B=8.0,ExtBa=12.62
27/09/2019,16:04:59,TEMP=18.7,BA=5.60,STAT.A=8.5,ExtBa=12.65
27/09/2019,16:13:11,TEMP=18.5,BA=5.60,STAT.A=8.0,ExtBa=12.65
27/09/2019,16:19:49,TEMP=18.5,BA=5.60,STAT.A=8.0,ExtBa=12.63
27/09/2019,16:25:18,TEMP=18.5,BA=5.40,STAT.A=8.0,ExtBa=12.62
27/09/2019,16:29:54,TEMP=18.6,BA=5.40,STAT.A=8.0,ExtBa=12.61
27/09/2019,16:33:50,TEMP=18.8,BA=5.40,STAT.A=8.0,ExtBa=12.60